Time;durP1;ratioP1;P1;durP2;ratioP2;P2;SDS_P1;SDS_P2;PMS_P1;PMS_P2;Temp;Humidity;BMP_temperature;BMP_pressure;BME280_temperature;BME280_humidity;BME280_pressure;Samples;Min_cycle;Max_cycle;Signal;HPM_P1;HPM_P2
2022/10/29 00:01:58;;;;;;;7.57;1.95;;;10.90;99.90;;;;;;4966944;28;20078;-77
2022/10/29 00:04:24;;;;;;;2.58;1.67;;;10.80;99.90;;;;;;4967324;28;20065;-77
2022/10/29 00:06:50;;;;;;;4.03;2.10;;;;;;;;;;4968182;28;20482;-75
2022/10/29 00:09:15;;;;;;;4.22;1.70;;;10.60;99.90;;;;;;4967204;28;20122;-73
2022/10/29 00:11:41;;;;;;;9.05;2.25;;;10.60;99.90;;;;;;4968826;28;20101;-74
2022/10/29 00:14:07;;;;;;;8.57;2.95;;;10.50;99.90;;;;;;4971293;28;20530;-76
2022/10/29 00:16:38;;;;;;;5.35;2.10;;;10.50;99.90;;;;;;4970535;28;20034;-77
2022/10/29 00:19:05;;;;;;;6.25;2.42;;;10.50;99.90;;;;;;4970868;28;20018;-74
2022/10/29 00:21:30;;;;;;;3.03;2.10;;;10.40;99.90;;;;;;4970877;28;20069;-75
2022/10/29 00:23:57;;;;;;;8.43;3.25;;;10.60;99.90;;;;;;4971173;28;20026;-76
2022/10/29 00:26:24;;;;;;;3.90;1.80;;;10.80;99.90;;;;;;4970984;28;20488;-76
2022/10/29 00:28:54;;;;;;;13.38;2.80;;;10.80;99.90;;;;;;4971313;28;20121;-77
2022/10/29 00:31:23;;;;;;;5.63;1.58;;;10.70;99.90;;;;;;4970192;28;20035;-76
2022/10/29 00:33:50;;;;;;;2.65;1.25;;;11.60;99.90;;;;;;4970613;28;20419;-75
2022/10/29 00:36:18;;;;;;;2.15;1.70;;;10.40;99.90;;;;;;4969468;28;20035;-74
2022/10/29 00:38:44;;;;;;;9.25;2.35;;;10.20;99.90;;;;;;4970810;28;20036;-76
2022/10/29 00:41:12;;;;;;;4.25;1.92;;;10.30;99.90;;;;;;4970472;28;20105;-75
2022/10/29 00:43:40;;;;;;;7.80;3.30;;;10.20;99.90;;;;;;4984880;28;20026;-77
2022/10/29 00:46:12;;;;;;;5.03;2.80;;;10.40;99.90;;;;;;4968798;28;20030;-74
2022/10/29 00:48:51;;;;;;;2.22;1.85;;;10.40;99.90;;;;;;4968376;28;20369;-74
2022/10/29 00:51:17;;;;;;;4.13;2.17;;;10.40;99.90;;;;;;4968778;28;20023;-78
2022/10/29 00:53:56;;;;;;;4.05;2.50;;;10.40;99.90;;;;;;4968716;28;20078;-74
2022/10/29 00:56:25;;;;;;;2.38;2.17;;;10.40;99.90;;;;;;4968930;28;20574;-76
2022/10/29 00:58:51;;;;;;;1.80;1.58;;;10.20;99.90;;;;;;4969513;28;20035;-77
2022/10/29 01:01:16;;;;;;;3.08;1.88;;;10.10;99.90;;;;;;4968780;28;20037;-77
2022/10/29 01:03:42;;;;;;;12.43;3.13;;;10.00;99.90;;;;;;4969347;28;20027;-76
2022/10/29 01:06:08;;;;;;;6.10;1.92;;;9.90;99.90;;;;;;4969767;28;20033;-74
2022/10/29 01:08:34;;;;;;;2.97;1.83;;;10.10;99.90;;;;;;4968785;28;20070;-76
2022/10/29 01:11:22;;;;;;;2.25;1.85;;;10.10;99.90;;;;;;4970164;28;20512;-74
2022/10/29 01:13:57;;;;;;;5.83;2.60;;;10.10;99.90;;;;;;4969897;28;20034;-75
2022/10/29 01:16:41;;;;;;;7.78;2.85;;;10.20;99.90;;;;;;4969680;28;20631;-75
2022/10/29 01:19:25;;;;;;;3.33;2.38;;;10.20;99.90;;;;;;4968944;28;20489;-76
2022/10/29 01:22:15;;;;;;;2.70;1.88;;;10.20;99.90;;;;;;4969276;28;20062;-77
2022/10/29 01:24:55;;;;;;;;;;;10.00;99.90;;;;;;4970167;28;20437;-77
2022/10/29 01:27:34;;;;;;;4.88;2.05;;;10.00;99.90;;;;;;4969520;28;19910;-77
2022/10/29 01:30:35;;;;;;;6.47;1.65;;;9.90;99.90;;;;;;4969364;28;20034;-77
2022/10/29 01:33:23;;;;;;;4.32;2.85;;;9.80;99.90;;;;;;4946485;28;20138;-77
2022/10/29 01:36:07;;;;;;;2.67;1.55;;;9.80;99.90;;;;;;4969291;28;20097;-77
2022/10/29 01:38:38;;;;;;;4.68;2.03;;;9.80;99.90;;;;;;4969735;28;20031;-77
2022/10/29 01:41:14;;;;;;;5.35;1.85;;;9.70;99.90;;;;;;4970079;28;20027;-77
2022/10/29 01:44:00;;;;;;;6.78;3.45;;;9.70;99.90;;;;;;4969907;28;20027;-75
2022/10/29 01:46:54;;;;;;;11.68;2.05;;;9.70;99.90;;;;;;4969743;28;20180;-77
2022/10/29 01:49:53;;;;;;;3.03;1.15;;;9.60;99.90;;;;;;4962476;28;20198;-77
2022/10/29 01:52:21;;;;;;;2.50;1.77;;;9.60;99.90;;;;;;4961589;28;20031;-76
2022/10/29 01:54:48;;;;;;;10.65;2.13;;;9.60;99.90;;;;;;4969261;28;20034;-77
2022/10/29 01:57:28;;;;;;;2.45;2.20;;;9.60;99.90;;;;;;4969519;28;20045;-76
2022/10/29 02:00:16;;;;;;;5.00;2.58;;;9.60;99.90;;;;;;4968054;28;20439;-77
2022/10/29 02:02:46;;;;;;;4.68;1.77;;;9.80;99.90;;;;;;4968605;28;20069;-77
2022/10/29 02:05:37;;;;;;;4.60;1.60;;;9.80;99.90;;;;;;4967686;28;20026;-76
2022/10/29 02:08:14;;;;;;;1.30;1.20;;;9.80;99.90;;;;;;4969085;28;20085;-75
2022/10/29 02:11:02;;;;;;;8.50;1.90;;;9.60;99.90;;;;;;4967806;28;20113;-76
2022/10/29 02:13:32;;;;;;;3.53;2.17;;;9.60;99.90;;;;;;4969111;28;20027;-77
2022/10/29 02:16:01;;;;;;;4.97;2.03;;;9.70;99.90;;;;;;4967801;28;20057;-77
2022/10/29 02:18:27;;;;;;;11.35;2.55;;;;;;;;;;4968365;28;20070;-78
2022/10/29 02:20:53;;;;;;;11.02;2.90;;;9.70;99.90;;;;;;4968927;28;20038;-77
2022/10/29 02:23:18;;;;;;;2.53;1.48;;;9.70;99.90;;;;;;4969035;28;20392;-77
2022/10/29 02:25:44;;;;;;;6.28;1.77;;;9.60;99.90;;;;;;4969122;28;20380;-76
2022/10/29 02:28:10;;;;;;;4.20;1.23;;;9.50;99.90;;;;;;4983635;28;20042;-76
2022/10/29 02:30:35;;;;;;;4.20;2.00;;;9.50;99.90;;;;;;4968591;28;20046;-77
2022/10/29 02:33:01;;;;;;;2.40;2.10;;;9.50;99.90;;;;;;4968072;28;20254;-77
2022/10/29 02:35:27;;;;;;;2.35;1.45;;;9.50;99.90;;;;;;4967516;28;20034;-77
2022/10/29 02:37:53;;;;;;;1.85;1.30;;;9.50;99.90;;;;;;4968291;28;20109;-76
2022/10/29 02:40:18;;;;;;;12.52;3.75;;;9.40;99.90;;;;;;4968447;28;20054;-77
2022/10/29 02:42:44;;;;;;;3.13;1.58;;;9.40;99.90;;;;;;4983634;28;20023;-77
2022/10/29 02:45:10;;;;;;;2.38;1.83;;;9.40;99.90;;;;;;4968898;28;20053;-77
2022/10/29 02:47:35;;;;;;;5.55;1.98;;;9.40;99.90;;;;;;4969610;28;20499;-77
2022/10/29 02:50:01;;;;;;;2.40;1.92;;;9.40;99.90;;;;;;4968554;28;20035;-76
2022/10/29 02:52:27;;;;;;;1.58;1.40;;;9.30;99.90;;;;;;4968364;28;20031;-77
2022/10/29 02:54:52;;;;;;;2.10;1.77;;;9.20;99.90;;;;;;4968361;28;20105;-77
2022/10/29 02:57:18;;;;;;;7.82;2.05;;;9.20;99.90;;;;;;4968302;28;20034;-77
2022/10/29 02:59:44;;;;;;;4.38;1.75;;;9.40;99.90;;;;;;4968668;28;20054;-76
2022/10/29 03:02:10;;;;;;;6.70;2.38;;;9.40;99.90;;;;;;4968470;28;20034;-76
2022/10/29 03:04:38;;;;;;;4.38;2.63;;;9.50;99.90;;;;;;4970728;28;20113;-78
2022/10/29 03:07:04;;;;;;;5.75;3.00;;;9.50;99.90;;;;;;4987869;28;20033;-77
2022/10/29 03:09:29;;;;;;;2.50;2.08;;;9.50;99.90;;;;;;4988053;28;20101;-75
2022/10/29 03:11:55;;;;;;;3.80;1.67;;;9.50;99.90;;;;;;4988072;28;20042;-74
2022/10/29 03:14:21;;;;;;;9.20;2.03;;;;;;;;;;4987823;28;20073;-75
2022/10/29 03:16:46;;;;;;;6.63;1.88;;;9.30;99.90;;;;;;4986930;28;20042;-76
2022/10/29 03:19:12;;;;;;;6.78;1.75;;;9.40;99.90;;;;;;4987515;28;20022;-74
2022/10/29 03:21:38;;;;;;;3.13;2.00;;;9.40;99.90;;;;;;4987051;28;20458;-74
2022/10/29 03:24:07;;;;;;;4.63;2.97;;;9.40;99.90;;;;;;4987118;28;20325;-76
2022/10/29 03:26:33;;;;;;;3.03;1.35;;;9.40;99.90;;;;;;4987749;28;20033;-76
2022/10/29 03:28:58;;;;;;;10.10;1.75;;;9.30;99.90;;;;;;4987465;28;20052;-76
2022/10/29 03:31:24;;;;;;;2.70;2.05;;;9.30;99.90;;;;;;4986868;28;20114;-76
2022/10/29 03:33:50;;;;;;;8.48;2.63;;;9.30;99.90;;;;;;4985870;28;20460;-75
2022/10/29 03:36:16;;;;;;;1.95;1.67;;;9.20;99.90;;;;;;4987038;28;20031;-76
2022/10/29 03:38:41;;;;;;;3.42;2.25;;;9.20;99.90;;;;;;4987241;28;20080;-75
2022/10/29 03:41:09;;;;;;;5.68;1.73;;;9.10;99.90;;;;;;4987502;28;20112;-74
2022/10/29 03:43:38;;;;;;;4.63;2.47;;;;;;;;;;4989311;28;20019;-77
2022/10/29 03:46:05;;;;;;;2.25;1.42;;;8.90;99.90;;;;;;4989634;28;20037;-77
2022/10/29 03:48:31;;;;;;;4.00;1.98;;;8.80;99.90;;;;;;4993648;28;20077;-75
2022/10/29 03:51:01;;;;;;;2.38;2.00;;;8.90;99.90;;;;;;4993858;28;20030;-74
2022/10/29 03:53:28;;;;;;;2.58;1.90;;;8.90;99.90;;;;;;4993270;28;20014;-74
2022/10/29 03:55:55;;;;;;;5.28;1.98;;;8.80;99.90;;;;;;4994130;28;20057;-75
2022/10/29 03:58:22;;;;;;;5.68;1.90;;;8.70;99.90;;;;;;4994284;28;20026;-75
2022/10/29 04:00:54;;;;;;;4.32;1.83;;;8.80;99.90;;;;;;4994614;28;20030;-75
2022/10/29 04:03:20;;;;;;;4.05;1.27;;;8.80;99.90;;;;;;4993793;28;20022;-75
2022/10/29 04:05:46;;;;;;;4.88;1.85;;;10.70;99.90;;;;;;4994351;28;20084;-74
2022/10/29 04:08:11;;;;;;;3.88;1.40;;;8.70;99.90;;;;;;4994157;28;20037;-74
2022/10/29 04:10:38;;;;;;;4.90;2.63;;;;;;;;;;4993994;28;20480;-75
2022/10/29 04:13:03;;;;;;;2.85;1.80;;;8.60;99.90;;;;;;4993968;28;20038;-74
2022/10/29 04:15:29;;;;;;;2.00;1.38;;;8.70;99.90;;;;;;4993792;28;20031;-74
2022/10/29 04:17:55;;;;;;;7.85;1.77;;;8.70;99.90;;;;;;4992276;28;20042;-74
2022/10/29 04:20:20;;;;;;;1.58;1.15;;;8.80;99.90;;;;;;4993893;28;20080;-74
2022/10/29 04:22:50;;;;;;;2.63;2.05;;;8.90;99.90;;;;;;4993976;28;20045;-75
2022/10/29 04:25:16;;;;;;;4.32;2.05;;;9.00;99.90;;;;;;4993837;28;20514;-73
2022/10/29 04:27:42;;;;;;;3.22;1.50;;;9.00;99.90;;;;;;4993735;28;20034;-74
2022/10/29 04:30:08;;;;;;;9.68;3.13;;;8.80;99.90;;;;;;4993735;28;20027;-75
2022/10/29 04:32:33;;;;;;;12.80;2.25;;;8.80;99.90;;;;;;4993422;28;20033;-73
2022/10/29 04:35:02;;;;;;;6.60;2.60;;;8.90;99.90;;;;;;4993326;28;20018;-74
2022/10/29 04:37:28;;;;;;;3.53;2.50;;;9.00;99.90;;;;;;4993696;28;20031;-75
2022/10/29 04:39:54;;;;;;;9.65;2.13;;;9.10;99.90;;;;;;4993583;28;20102;-74
2022/10/29 04:42:20;;;;;;;2.05;1.50;;;9.10;99.90;;;;;;4993698;28;20105;-74
2022/10/29 04:44:46;;;;;;;4.68;1.48;;;9.00;99.90;;;;;;4993312;28;20041;-74
2022/10/29 04:47:12;;;;;;;5.53;3.40;;;8.90;99.90;;;;;;4993413;28;20088;-74
2022/10/29 04:49:37;;;;;;;2.22;1.83;;;9.50;99.90;;;;;;4991782;28;20026;-75
2022/10/29 04:52:03;;;;;;;1.88;1.40;;;8.80;99.90;;;;;;4991801;28;20034;-74
2022/10/29 04:54:32;;;;;;;5.93;3.35;;;8.80;99.90;;;;;;4991787;28;20495;-75
2022/10/29 04:56:57;;;;;;;8.60;3.42;;;8.80;99.90;;;;;;4991479;28;20162;-75
2022/10/29 04:59:23;;;;;;;4.82;2.30;;;8.80;99.90;;;;;;4990660;28;20633;-74
2022/10/29 05:01:49;;;;;;;3.47;1.67;;;8.80;99.90;;;;;;4991013;28;20034;-74
2022/10/29 05:04:15;;;;;;;5.00;2.28;;;8.80;99.90;;;;;;4991418;28;20380;-74
2022/10/29 05:06:40;;;;;;;15.15;2.22;;;8.70;99.90;;;;;;4991757;28;20049;-74
2022/10/29 05:09:06;;;;;;;6.63;2.97;;;;;;;;;;4991310;28;20081;-75
2022/10/29 05:11:32;;;;;;;5.65;1.60;;;8.70;99.90;;;;;;4991484;28;20105;-75
2022/10/29 05:13:58;;;;;;;3.13;2.38;;;8.80;99.90;;;;;;4991067;28;20033;-75
2022/10/29 05:16:23;;;;;;;5.20;1.60;;;8.70;99.90;;;;;;4990914;28;20030;-73
2022/10/29 05:18:49;;;;;;;5.85;1.98;;;8.70;99.90;;;;;;4991358;28;20711;-75
2022/10/29 05:21:15;;;;;;;8.88;2.60;;;8.60;99.90;;;;;;4989744;28;20034;-74
2022/10/29 05:23:41;;;;;;;5.47;1.55;;;8.50;99.90;;;;;;4992370;28;20483;-74
2022/10/29 05:26:09;;;;;;;4.05;2.35;;;8.50;99.90;;;;;;4995698;28;20026;-75
2022/10/29 05:28:35;;;;;;;2.70;1.70;;;8.50;99.90;;;;;;4997536;28;20081;-75
2022/10/29 05:31:04;;;;;;;2.92;1.70;;;8.50;99.90;;;;;;4998209;28;20277;-75
2022/10/29 05:33:29;;;;;;;5.78;2.55;;;8.60;99.90;;;;;;4999565;28;20030;-75
2022/10/29 05:35:55;;;;;;;3.30;2.30;;;10.00;99.90;;;;;;4996336;28;20034;-77
2022/10/29 05:38:21;;;;;;;2.05;1.13;;;8.80;99.90;;;;;;4992813;28;20065;-75
2022/10/29 05:40:46;;;;;;;1.65;1.55;;;8.70;99.90;;;;;;4993684;28;20149;-75
2022/10/29 05:43:16;;;;;;;1.67;1.10;;;8.50;99.90;;;;;;4994437;28;20026;-74
2022/10/29 05:45:42;;;;;;;;;;;8.40;99.90;;;;;;4993015;28;20018;-74
2022/10/29 05:48:09;;;;;;;6.00;1.73;;;8.30;99.90;;;;;;4992068;28;19912;-75
2022/10/29 05:50:35;;;;;;;1.70;1.23;;;8.30;99.90;;;;;;4990742;28;20368;-74
2022/10/29 05:53:04;;;;;;;13.25;2.03;;;8.40;99.90;;;;;;4992183;28;20029;-74
2022/10/29 05:55:31;;;;;;;5.30;2.60;;;8.70;99.90;;;;;;4990545;28;20030;-74
2022/10/29 05:57:58;;;;;;;4.25;2.63;;;8.80;99.90;;;;;;4992091;28;20031;-74
2022/10/29 06:00:25;;;;;;;5.00;1.55;;;8.90;99.90;;;;;;4992191;28;20101;-74
2022/10/29 06:02:51;;;;;;;3.70;1.85;;;8.90;99.90;;;;;;4992127;28;20030;-74
2022/10/29 06:05:17;;;;;;;3.38;1.90;;;8.80;99.90;;;;;;4992100;28;20106;-74
2022/10/29 06:07:43;;;;;;;1.23;1.10;;;8.70;99.90;;;;;;4992092;28;20101;-74
2022/10/29 06:10:08;;;;;;;2.53;1.20;;;8.50;99.90;;;;;;4991809;28;20037;-74
2022/10/29 06:12:34;;;;;;;4.40;1.67;;;8.40;99.90;;;;;;4991956;28;20034;-75
2022/10/29 06:15:00;;;;;;;4.47;2.00;;;8.30;99.90;;;;;;4991634;28;20533;-75
2022/10/29 06:17:26;;;;;;;4.65;3.50;;;8.30;99.90;;;;;;4991634;28;20022;-74
2022/10/29 06:19:52;;;;;;;6.10;2.85;;;8.30;99.90;;;;;;4991752;28;20428;-74
2022/10/29 06:22:18;;;;;;;5.53;1.73;;;8.30;99.90;;;;;;4991503;28;20056;-74
2022/10/29 06:24:43;;;;;;;2.58;1.77;;;8.40;99.90;;;;;;4991661;28;20076;-74
2022/10/29 06:27:09;;;;;;;4.65;2.55;;;8.50;99.90;;;;;;4991519;28;20019;-74
2022/10/29 06:29:35;;;;;;;3.33;1.70;;;8.50;99.90;;;;;;4991659;28;20376;-75
2022/10/29 06:32:00;;;;;;;4.82;2.10;;;8.50;99.90;;;;;;4991064;28;20538;-74
2022/10/29 06:34:26;;;;;;;2.28;1.50;;;8.40;99.90;;;;;;4991345;28;20422;-74
2022/10/29 06:36:52;;;;;;;4.32;1.58;;;8.50;99.90;;;;;;4991385;28;20156;-75
2022/10/29 06:39:17;;;;;;;5.45;2.33;;;8.60;99.90;;;;;;4991372;28;20030;-74
2022/10/29 06:41:43;;;;;;;4.65;1.52;;;8.80;99.90;;;;;;4991631;28;20030;-75
2022/10/29 06:44:09;;;;;;;13.77;2.38;;;8.80;99.90;;;;;;4991505;28;20411;-75
2022/10/29 06:46:35;;;;;;;3.35;1.95;;;8.90;99.90;;;;;;4990930;28;20073;-74
2022/10/29 06:49:01;;;;;;;4.57;2.25;;;8.90;99.90;;;;;;4991398;28;20474;-75
2022/10/29 06:51:27;;;;;;;1.38;1.25;;;8.90;99.90;;;;;;4991174;28;20475;-74
2022/10/29 06:53:53;;;;;;;2.13;1.48;;;8.80;99.90;;;;;;4990029;28;20088;-74
2022/10/29 06:56:19;;;;;;;2.65;1.77;;;8.70;99.90;;;;;;4991186;28;20035;-75
2022/10/29 06:58:45;;;;;;;5.75;2.15;;;8.60;99.90;;;;;;4991122;28;20143;-74
2022/10/29 07:01:11;;;;;;;3.00;1.80;;;8.60;99.90;;;;;;4978647;28;20054;-75
2022/10/29 07:03:37;;;;;;;2.78;1.70;;;8.60;99.90;;;;;;4971626;28;20029;-76
2022/10/29 07:06:03;;;;;;;2.15;1.38;;;8.80;99.90;;;;;;4971340;28;20019;-75
2022/10/29 07:08:29;;;;;;;2.03;1.17;;;8.90;99.90;;;;;;4971360;28;20023;-76
2022/10/29 07:10:55;;;;;;;5.35;1.98;;;9.00;99.90;;;;;;4972305;28;20411;-75
2022/10/29 07:13:21;;;;;;;8.50;2.88;;;9.20;99.90;;;;;;4973372;28;20042;-79
2022/10/29 07:15:49;;;;;;;2.55;2.33;;;9.30;99.90;;;;;;4973334;28;20026;-76
2022/10/29 07:18:15;;;;;;;5.03;1.55;;;9.40;99.90;;;;;;4990832;28;20070;-79
2022/10/29 07:20:43;;;;;;;4.10;2.20;;;9.50;99.90;;;;;;4991450;28;20030;-78
2022/10/29 07:23:09;;;;;;;3.75;1.75;;;9.60;99.90;;;;;;4991326;28;20042;-75
2022/10/29 07:25:39;;;;;;;3.85;2.47;;;9.70;99.90;;;;;;4990463;28;20033;-77
2022/10/29 07:28:19;;;;;;;10.15;2.33;;;9.90;99.90;;;;;;4990685;28;20041;-79
2022/10/29 07:30:49;;;;;;;2.05;1.60;;;10.00;99.90;;;;;;4990978;28;20468;-77
2022/10/29 07:33:16;;;;;;;5.32;2.38;;;10.00;99.90;;;;;;4990910;28;20093;-78
2022/10/29 07:35:43;;;;;;;6.30;2.00;;;10.00;99.90;;;;;;4990866;28;20026;-76
2022/10/29 07:38:10;;;;;;;3.95;2.15;;;10.10;99.90;;;;;;4989404;28;20114;-78
2022/10/29 07:40:44;;;;;;;5.20;2.20;;;10.20;99.90;;;;;;4991044;28;20030;-78
2022/10/29 07:43:10;;;;;;;2.47;2.28;;;10.40;99.90;;;;;;4991385;28;20027;-79
2022/10/29 07:45:36;;;;;;;4.05;1.48;;;10.60;99.90;;;;;;4970821;28;20106;-75
2022/10/29 07:48:04;;;;;;;4.22;1.98;;;10.80;99.90;;;;;;4970243;28;20026;-76
2022/10/29 07:50:30;;;;;;;9.80;2.50;;;10.90;99.90;;;;;;4971022;28;20479;-74
2022/10/29 07:52:59;;;;;;;4.47;2.58;;;11.00;99.90;;;;;;4973773;28;20062;-80
2022/10/29 07:55:25;;;;;;;13.40;2.28;;;11.20;99.90;;;;;;4973637;28;20487;-75
2022/10/29 07:58:00;;;;;;;14.55;2.67;;;11.40;99.90;;;;;;4975753;28;20058;-75
2022/10/29 08:00:26;;;;;;;3.92;2.67;;;11.50;99.90;;;;;;4973861;28;20078;-79
2022/10/29 08:02:56;;;;;;;13.18;2.58;;;11.60;99.90;;;;;;4974109;28;20034;-75
2022/10/29 08:05:22;;;;;;;;;;;11.70;99.90;;;;;;4974556;28;20054;-78
2022/10/29 08:07:48;;;;;;;4.68;2.80;;;11.80;99.90;;;;;;4975646;28;19913;-76
2022/10/29 08:10:14;;;;;;;5.25;2.35;;;9.80;99.90;;;;;;4978087;28;20027;-75
2022/10/29 08:12:40;;;;;;;7.43;2.25;;;12.00;99.90;;;;;;4973698;28;20023;-75
2022/10/29 08:15:06;;;;;;;6.10;2.80;;;12.10;99.90;;;;;;4971081;28;20472;-76
2022/10/29 08:17:32;;;;;;;5.65;3.10;;;12.20;99.90;;;;;;4973057;28;20054;-78
2022/10/29 08:19:57;;;;;;;8.90;3.78;;;12.30;99.90;;;;;;4973498;28;20027;-77
2022/10/29 08:22:23;;;;;;;10.05;1.75;;;12.40;99.90;;;;;;4971373;28;20137;-74
2022/10/29 08:24:49;;;;;;;6.95;2.65;;;12.50;99.90;;;;;;4971636;28;20098;-75
2022/10/29 08:27:14;;;;;;;3.95;2.03;;;12.70;99.90;;;;;;4973237;28;20502;-75
2022/10/29 08:29:40;;;;;;;6.45;3.17;;;12.80;99.90;;;;;;4971704;28;20037;-75
2022/10/29 08:32:06;;;;;;;4.65;3.92;;;12.90;99.90;;;;;;4970918;28;20700;-75
2022/10/29 08:34:31;;;;;;;7.07;3.30;;;13.00;99.90;;;;;;4974285;28;20169;-77
2022/10/29 08:36:57;;;;;;;5.93;3.40;;;13.10;99.90;;;;;;4973848;28;20506;-76
2022/10/29 08:39:23;;;;;;;10.43;3.08;;;13.10;99.90;;;;;;4975396;28;20376;-75
2022/10/29 08:42:06;;;;;;;6.22;3.30;;;13.40;99.90;;;;;;4973732;28;20031;-75
2022/10/29 08:44:38;;;;;;;6.03;2.65;;;13.50;99.90;;;;;;4973797;28;20023;-75
2022/10/29 08:47:20;;;;;;;4.55;2.67;;;13.50;99.90;;;;;;4973078;28;20527;-76
2022/10/29 08:50:04;;;;;;;5.03;2.75;;;13.60;99.90;;;;;;4972128;28;20023;-75
2022/10/29 08:52:36;;;;;;;2.83;2.38;;;13.80;99.90;;;;;;4973715;28;20050;-75
2022/10/29 08:55:32;;;;;;;13.15;3.08;;;13.90;99.90;;;;;;4974022;28;20056;-75
2022/10/29 08:58:09;;;;;;;6.97;2.58;;;14.10;99.90;;;;;;4972489;28;20495;-74
2022/10/29 09:00:37;;;;;;;5.57;3.72;;;14.20;99.90;;;;;;4973341;28;20400;-74
2022/10/29 09:03:10;;;;;;;12.10;3.33;;;14.20;99.90;;;;;;4974601;28;20034;-75
2022/10/29 09:05:50;;;;;;;4.55;3.67;;;14.30;99.90;;;;;;4977174;28;20018;-78
2022/10/29 09:08:37;;;;;;;19.52;3.17;;;14.40;99.90;;;;;;4971922;28;20058;-75
2022/10/29 09:11:29;;;;;;;5.18;2.65;;;14.60;99.90;;;;;;4970387;28;20035;-77
2022/10/29 09:14:27;;;;;;;4.57;2.35;;;14.70;99.90;;;;;;4970653;28;20023;-76
2022/10/29 09:17:08;;;;;;;10.23;2.70;;;14.80;99.90;;;;;;4971840;28;20519;-79
2022/10/29 09:20:10;;;;;;;9.00;3.38;;;14.70;99.90;;;;;;4972256;28;20315;-79
2022/10/29 09:22:51;;;;;;;12.38;2.63;;;14.90;99.90;;;;;;4971706;28;20097;-78
2022/10/29 09:25:30;;;;;;;7.20;3.00;;;14.90;99.90;;;;;;4970880;28;20074;-80
2022/10/29 09:28:31;;;;;;;5.00;2.85;;;15.00;99.90;;;;;;4973325;28;20082;-80
2022/10/29 09:31:16;;;;;;;13.27;1.90;;;15.20;99.90;;;;;;4972655;28;20070;-80
2022/10/29 09:33:47;;;;;;;3.60;2.30;;;15.20;99.90;;;;;;4984223;28;20109;-75
2022/10/29 09:36:19;;;;;;;5.93;2.42;;;15.40;99.90;;;;;;4983412;28;20031;-78
2022/10/29 09:39:28;;;;;;;7.25;2.33;;;15.50;99.90;;;;;;4984128;28;20407;-75
2022/10/29 09:41:57;;;;;;;9.38;3.03;;;15.60;99.90;;;;;;4970684;28;20030;-75
2022/10/29 09:44:46;;;;;;;6.75;1.95;;;15.70;99.90;;;;;;4983305;28;20114;-81
2022/10/29 09:47:51;;;;;;;9.95;2.33;;;15.80;99.90;;;;;;4962215;28;20086;-76
2022/10/29 09:50:25;;;;;;;3.90;2.70;;;16.00;99.90;;;;;;4912565;29;20335;-77
2022/10/29 09:52:52;;;;;;;4.53;2.13;;;16.20;99.90;;;;;;4963840;28;20491;-79
2022/10/29 09:55:23;;;;;;;6.05;2.45;;;16.30;99.90;;;;;;4971338;28;20121;-75
2022/10/29 09:57:48;;;;;;;3.10;1.85;;;16.70;99.90;;;;;;4973064;28;20491;-79
2022/10/29 10:00:25;;;;;;;4.82;2.40;;;16.70;99.90;;;;;;4972857;28;20023;-75
2022/10/29 10:03:03;;;;;;;4.13;2.28;;;17.00;99.90;;;;;;4971048;28;20037;-77
2022/10/29 10:05:31;;;;;;;3.17;2.10;;;17.10;99.90;;;;;;4971343;28;20026;-80
2022/10/29 10:08:05;;;;;;;8.32;3.03;;;17.40;99.90;;;;;;4971129;28;20051;-80
2022/10/29 10:10:33;;;;;;;6.13;2.60;;;17.60;99.90;;;;;;4972290;28;20030;-78
2022/10/29 10:13:04;;;;;;;4.05;2.95;;;17.70;99.90;;;;;;4971034;28;20495;-78
2022/10/29 10:15:34;;;;;;;7.13;2.72;;;17.90;99.90;;;;;;4971971;28;20046;-80
2022/10/29 10:18:22;;;;;;;4.70;2.20;;;18.10;99.90;;;;;;4972308;28;20033;-81
2022/10/29 10:21:27;;;;;;;4.38;2.25;;;18.30;99.90;;;;;;4972478;28;20081;-81
2022/10/29 10:23:56;;;;;;;15.25;2.28;;;18.60;99.90;;;;;;4972434;28;20050;-80
2022/10/29 10:26:44;;;;;;;4.60;1.83;;;18.80;99.90;;;;;;4972179;28;20023;-80
2022/10/29 10:29:13;;;;;;;2.30;2.10;;;19.00;99.90;;;;;;4971965;28;20053;-80
2022/10/29 10:31:40;;;;;;;8.40;1.98;;;19.10;99.90;;;;;;4967604;28;20145;-79
2022/10/29 10:34:14;;;;;;;2.58;2.10;;;19.20;99.90;;;;;;4969481;28;20103;-80
2022/10/29 10:36:44;;;;;;;4.82;2.03;;;19.30;99.90;;;;;;4970924;28;20253;-80
2022/10/29 10:39:24;;;;;;;5.55;2.28;;;19.40;99.90;;;;;;4985698;28;20435;-79
2022/10/29 10:41:50;;;;;;;5.82;2.85;;;19.50;99.90;;;;;;4969187;28;20034;-79
2022/10/29 10:44:19;;;;;;;1.92;1.42;;;19.60;99.90;;;;;;4970703;28;20133;-81
2022/10/29 10:46:46;;;;;;;5.22;2.45;;;19.70;99.90;;;;;;4970021;28;20046;-77
2022/10/29 10:49:17;;;;;;;4.47;1.42;;;19.80;99.90;;;;;;4970675;28;20106;-77
2022/10/29 10:51:51;;;;;;;3.50;2.15;;;19.80;99.90;;;;;;4970469;28;20045;-79
2022/10/29 10:54:26;;;;;;;12.75;1.63;;;19.80;99.90;;;;;;4970290;28;20027;-77
2022/10/29 10:56:56;;;;;;;6.32;2.03;;;19.80;99.90;;;;;;4969538;28;20583;-77
2022/10/29 10:59:28;;;;;;;12.30;1.90;;;19.90;99.90;;;;;;4968734;28;20109;-76
2022/10/29 11:01:54;;;;;;;3.85;2.55;;;19.90;99.90;;;;;;4968700;28;20403;-79
2022/10/29 11:04:23;;;;;;;5.05;1.95;;;20.00;99.90;;;;;;4967384;28;20023;-77
2022/10/29 11:06:52;;;;;;;2.38;2.05;;;20.10;99.90;;;;;;4969530;28;20031;-80
2022/10/29 11:09:40;;;;;;;2.70;2.50;;;20.10;99.90;;;;;;4971225;28;20027;-75
2022/10/29 11:12:25;;;;;;;1.63;1.40;;;20.30;99.90;;;;;;4970223;28;20102;-78
2022/10/29 11:14:56;;;;;;;4.03;1.83;;;20.40;99.90;;;;;;4971063;28;20337;-79
2022/10/29 11:17:25;;;;;;;9.05;2.15;;;20.40;99.90;;;;;;4970748;28;20074;-75
2022/10/29 11:19:53;;;;;;;10.50;2.05;;;20.80;99.90;;;;;;4969534;28;20030;-77
2022/10/29 11:22:56;;;;;;;3.15;1.63;;;20.60;99.90;;;;;;4970497;28;20066;-77
2022/10/29 11:25:38;;;;;;;2.88;2.17;;;20.60;99.90;;;;;;4910351;29;20028;-78
2022/10/29 11:28:20;;;;;;;2.10;1.55;;;20.80;99.90;;;;;;4963191;28;20128;-76
2022/10/29 11:30:55;;;;;;;2.45;1.65;;;21.00;99.90;;;;;;4969519;28;20034;-75
2022/10/29 11:33:42;;;;;;;3.40;1.73;;;21.10;99.90;;;;;;4969445;28;20031;-79
2022/10/29 11:36:31;;;;;;;4.80;1.27;;;21.10;99.90;;;;;;4968445;28;20030;-79
2022/10/29 11:39:07;;;;;;;11.85;2.15;;;21.20;99.90;;;;;;4969513;28;20027;-76
2022/10/29 11:41:37;;;;;;;8.95;1.52;;;21.20;99.90;;;;;;4969287;28;20468;-80
2022/10/29 11:44:09;;;;;;;2.42;1.33;;;21.30;99.90;;;;;;4968722;28;20431;-79
2022/10/29 11:46:46;;;;;;;6.72;1.63;;;21.40;99.90;;;;;;4970603;28;20365;-79
2022/10/29 11:49:24;;;;;;;7.45;2.03;;;21.40;99.90;;;;;;4970861;28;20037;-77
2022/10/29 11:51:52;;;;;;;5.50;1.33;;;21.50;99.90;;;;;;4970771;28;20027;-76
2022/10/29 11:54:37;;;;;;;3.03;2.08;;;21.50;99.90;;;;;;4969654;28;20026;-75
2022/10/29 11:57:20;;;;;;;4.43;1.50;;;21.70;99.90;;;;;;4969359;28;20186;-78
2022/10/29 11:59:49;;;;;;;4.85;1.88;;;21.90;99.90;;;;;;4970832;28;20387;-78
2022/10/29 12:03:08;;;;;;;7.00;1.40;;;22.00;99.90;;;;;;4970523;28;20034;-75
2022/10/29 12:05:45;;;;;;;9.02;1.67;;;22.10;99.90;;;;;;4910243;29;20040;-77
2022/10/29 12:08:17;;;;;;;1.98;1.30;;;22.20;99.90;;;;;;4972900;28;20118;-79
2022/10/29 12:10:53;;;;;;;11.20;1.90;;;22.50;99.90;;;;;;4990759;28;20076;-78
2022/10/29 12:13:38;;;;;;;5.25;1.70;;;22.60;99.90;;;;;;4992751;28;20030;-80
2022/10/29 12:16:13;;;;;;;6.43;3.38;;;22.60;99.90;;;;;;4993434;28;20022;-76
2022/10/29 12:19:06;;;;;;;9.15;1.38;;;22.70;99.90;;;;;;4993401;28;20464;-78
2022/10/29 12:21:49;;;;;;;5.07;2.15;;;22.90;99.90;;;;;;4993340;28;20213;-75
2022/10/29 12:24:32;;;;;;;5.13;1.55;;;23.10;99.90;;;;;;4992113;28;20052;-76
2022/10/29 12:27:01;;;;;;;6.88;1.90;;;23.50;99.90;;;;;;4993470;28;20093;-77
2022/10/29 12:29:33;;;;;;;4.38;1.50;;;23.90;99.90;;;;;;4993380;28;20026;-76
2022/10/29 12:32:24;;;;;;;7.78;1.83;;;24.30;99.90;;;;;;4993225;28;20018;-79
2022/10/29 12:35:18;;;;;;;4.10;1.75;;;24.90;99.90;;;;;;4993277;28;20025;-76
2022/10/29 12:38:03;;;;;;;1.25;0.98;;;25.90;98.10;;;;;;4992974;28;20189;-79
2022/10/29 12:40:33;;;;;;;3.05;1.38;;;26.80;91.60;;;;;;4993193;28;20092;-76
2022/10/29 12:43:05;;;;;;;8.60;2.10;;;26.90;87.90;;;;;;4993153;28;20022;-77
2022/10/29 12:45:58;;;;;;;6.82;1.25;;;27.10;85.10;;;;;;4992909;28;20066;-76
2022/10/29 12:48:47;;;;;;;2.85;1.33;;;28.10;80.00;;;;;;4993168;28;20483;-79
2022/10/29 12:51:40;;;;;;;7.00;1.83;;;28.70;76.50;;;;;;4993258;28;20073;-80
2022/10/29 12:54:21;;;;;;;1.58;1.48;;;29.00;73.30;;;;;;4992909;28;20026;-79
2022/10/29 12:56:50;;;;;;;5.03;1.17;;;29.80;68.50;;;;;;4992848;28;20538;-76
2022/10/29 12:59:24;;;;;;;;;;;29.90;66.80;;;;;;4983123;28;20471;-80
2022/10/29 13:01:51;;;;;;;2.92;1.35;;;29.70;65.90;;;;;;4973827;28;19910;-79
2022/10/29 13:04:31;;;;;;;8.63;1.50;;;29.50;65.80;;;;;;4992643;28;20027;-77
2022/10/29 13:07:15;;;;;;;3.03;1.95;;;29.20;67.30;;;;;;4993065;28;20058;-77
2022/10/29 13:09:41;;;;;;;6.75;1.52;;;29.40;69.00;;;;;;4992643;28;20026;-79
2022/10/29 13:12:11;;;;;;;2.55;1.30;;;29.30;67.70;;;;;;4993685;28;20030;-79
2022/10/29 13:14:54;;;;;;;4.13;2.00;;;29.30;67.60;;;;;;4992755;28;20184;-80
2022/10/29 13:17:34;;;;;;;6.20;1.48;;;29.20;65.40;;;;;;4992510;28;20034;-80